createdAt,value
2016-12-05T00:01:32.682Z,-0.16
2016-12-05T00:02:01.084Z,-0.25
2016-12-05T00:02:22.918Z,-0.30
2016-12-05T00:02:47.216Z,-0.36
2016-12-05T00:03:13.713Z,-0.41
2016-12-05T00:04:12.309Z,-0.31
2016-12-05T00:04:41.676Z,-0.39
2016-12-05T00:05:53.743Z,-0.29
2016-12-05T00:07:48.229Z,-0.39
2016-12-05T00:08:14.726Z,-0.35
2016-12-05T00:08:36.472Z,-0.38
2016-12-05T00:09:03.970Z,-0.45
2016-12-05T00:09:26.713Z,-0.51
2016-12-05T00:09:53.246Z,-0.53
2016-12-05T00:10:15.063Z,-0.52
2016-12-05T00:10:39.374Z,-0.56
2016-12-05T00:12:46.926Z,-0.46
2016-12-05T00:13:11.298Z,-0.46
2016-12-05T00:13:37.609Z,-0.45
2016-12-05T00:14:05.130Z,-0.39
2016-12-05T00:14:59.116Z,-0.38
2016-12-05T00:15:20.947Z,-0.43
2016-12-05T00:15:47.268Z,-0.48
2016-12-05T00:16:09.200Z,-0.52
2016-12-05T00:18:06.211Z,-0.57
2016-12-05T00:19:08.473Z,-0.63
2016-12-05T00:19:30.239Z,-0.66
2016-12-05T00:19:56.726Z,-0.65
2016-12-05T00:20:53.377Z,-0.63
2016-12-05T00:21:22.395Z,-0.72
2016-12-05T00:21:49.046Z,-0.70
2016-12-05T00:22:41.249Z,-0.69
2016-12-05T00:23:07.963Z,-0.70
2016-12-05T00:23:35.535Z,-0.68
2016-12-05T00:24:53.060Z,-0.69
2016-12-05T00:25:14.898Z,-0.70
2016-12-05T00:25:40.239Z,-0.68
2016-12-05T00:26:06.744Z,-0.69
2016-12-05T00:26:38.013Z,-0.63
2016-12-05T00:27:30.869Z,-0.59
2016-12-05T00:28:19.688Z,-0.45
2016-12-05T00:28:44.204Z,-0.46
2016-12-05T00:29:38.205Z,-0.50
2016-12-05T00:30:09.472Z,-0.51
2016-12-05T00:30:36.968Z,-0.57
2016-12-05T00:30:58.722Z,-0.59
2016-12-05T00:31:25.227Z,-0.62
2016-12-05T00:31:51.825Z,-0.65
2016-12-05T00:32:18.335Z,-0.63
2016-12-05T00:33:10.455Z,-0.61
2016-12-05T00:33:35.155Z,-0.62
2016-12-05T00:33:56.941Z,-0.62
2016-12-05T00:34:21.332Z,-0.61
2016-12-05T00:34:45.605Z,-0.63
2016-12-05T00:35:41.799Z,-0.67
2016-12-05T00:36:08.305Z,-0.70
2016-12-05T00:36:33.545Z,-0.69
2016-12-05T00:36:57.858Z,-0.70
2016-12-05T00:37:33.908Z,-0.66
2016-12-05T00:37:58.867Z,-0.68
2016-12-05T00:38:25.390Z,-0.69
2016-12-05T00:38:48.109Z,-0.67
2016-12-05T00:39:19.387Z,-0.69
2016-12-05T00:40:17.204Z,-0.70
2016-12-05T00:40:38.931Z,-0.64
2016-12-05T00:41:00.656Z,-0.58
2016-12-05T00:42:28.173Z,-0.54
2016-12-05T00:43:25.784Z,-0.54
2016-12-05T00:43:52.277Z,-0.53
2016-12-05T00:44:28.824Z,-0.55
2016-12-05T00:45:36.713Z,-0.52
2016-12-05T00:46:35.217Z,-0.42
2016-12-05T00:47:27.001Z,-0.41
2016-12-05T00:47:58.765Z,-0.48
2016-12-05T00:48:21.492Z,-0.50
2016-12-05T00:49:09.713Z,-0.56
2016-12-05T00:49:39.095Z,-0.56
2016-12-05T00:50:05.592Z,-0.55
2016-12-05T00:50:27.312Z,-0.57
2016-12-05T00:50:53.839Z,-0.58
2016-12-05T00:51:49.653Z,-0.53
2016-12-05T00:52:52.722Z,-0.55
2016-12-05T00:53:17.193Z,-0.57
2016-12-05T00:54:31.944Z,-0.49
2016-12-05T00:55:39.302Z,-0.38
2016-12-05T00:56:08.926Z,-0.43
2016-12-05T00:56:35.306Z,-0.49
2016-12-05T00:56:59.930Z,-0.53
2016-12-05T00:58:14.658Z,-0.50
2016-12-05T00:59:07.675Z,-0.48
2016-12-05T00:59:30.399Z,-0.44
2016-12-05T00:59:53.123Z,-0.36
2016-12-05T01:00:15.848Z,-0.35
2016-12-05T01:00:37.575Z,-0.34
2016-12-05T01:01:06.910Z,-0.38
2016-12-05T01:02:09.474Z,-0.41
2016-12-05T01:02:57.695Z,-0.45
2016-12-05T01:03:26.942Z,-0.46
2016-12-05T01:03:56.130Z,-0.48
2016-12-05T01:04:17.858Z,-0.56
2016-12-05T01:04:44.394Z,-0.56
2016-12-05T01:05:10.880Z,-0.53
2016-12-05T01:05:35.490Z,-0.53
2016-12-05T01:06:03.014Z,-0.54
2016-12-05T01:06:27.698Z,-0.55
2016-12-05T01:07:16.923Z,-0.55
2016-12-05T01:07:38.678Z,-0.55
2016-12-05T01:08:00.407Z,-0.57
2016-12-05T01:08:23.129Z,-0.54
2016-12-05T01:08:54.214Z,-0.49
2016-12-05T01:09:15.948Z,-0.51
2016-12-05T01:09:37.679Z,-0.44
2016-12-05T01:10:31.687Z,-0.48
2016-12-05T01:11:19.736Z,-0.56
2016-12-05T01:11:41.490Z,-0.53
2016-12-05T01:12:07.992Z,-0.51
2016-12-05T01:12:36.344Z,-0.52
2016-12-05T01:13:00.710Z,-0.51
2016-12-05T01:13:28.225Z,-0.53
2016-12-05T01:13:52.914Z,-0.53
2016-12-05T01:14:17.247Z,-0.51
2016-12-05T01:14:39.000Z,-0.50
2016-12-05T01:15:03.334Z,-0.50
2016-12-05T01:15:27.725Z,-0.50
2016-12-05T01:15:49.489Z,-0.51
2016-12-05T01:16:11.213Z,-0.49
2016-12-05T01:16:37.739Z,-0.42
2016-12-05T01:18:46.555Z,-0.42
2016-12-05T01:19:14.062Z,-0.45
2016-12-05T01:19:39.723Z,-0.49
2016-12-05T01:20:04.030Z,-0.49
2016-12-05T01:20:25.809Z,-0.43
2016-12-05T01:20:47.530Z,-0.44
2016-12-05T01:21:09.264Z,-0.39
2016-12-05T01:21:35.781Z,-0.40
2016-12-05T01:22:02.708Z,-0.42
2016-12-05T01:22:56.713Z,-0.48
2016-12-05T01:23:18.448Z,-0.47
2016-12-05T01:23:44.964Z,-0.46
2016-12-05T01:24:07.730Z,-0.46
2016-12-05T01:24:30.463Z,-0.41
2016-12-05T01:24:53.187Z,-0.42
2016-12-05T01:25:50.970Z,-0.35
2016-12-05T01:26:18.528Z,-0.34
2016-12-05T01:26:45.026Z,-0.39
2016-12-05T01:27:21.060Z,-0.46
2016-12-05T01:27:48.154Z,-0.48
2016-12-05T01:28:37.574Z,-0.51
2016-12-05T01:29:04.076Z,-0.57
2016-12-05T01:30:23.606Z,-0.48
2016-12-05T01:30:45.545Z,-0.46
2016-12-05T01:31:16.812Z,-0.49
2016-12-05T01:31:39.548Z,-0.52
2016-12-05T01:32:02.275Z,-0.48
2016-12-05T01:32:28.650Z,-0.52
2016-12-05T01:33:31.134Z,-0.51
2016-12-05T01:34:41.682Z,-0.53
2016-12-05T01:35:12.752Z,-0.55
2016-12-05T01:36:01.779Z,-0.55
2016-12-05T01:36:34.040Z,-0.52
2016-12-05T01:36:56.771Z,-0.55
2016-12-05T01:37:18.519Z,-0.52
2016-12-05T01:38:06.811Z,-0.52
2016-12-05T01:38:28.539Z,-0.51
2016-12-05T01:38:55.780Z,-0.55
2016-12-05T01:39:17.548Z,-0.61
2016-12-05T01:39:39.293Z,-0.64
2016-12-05T01:40:01.021Z,-0.68
2016-12-05T01:40:27.717Z,-0.65
2016-12-05T01:40:54.209Z,-0.62
2016-12-05T01:41:25.479Z,-0.56
2016-12-05T01:41:47.228Z,-0.46
2016-12-05T01:42:09.028Z,-0.46
2016-12-05T01:42:36.519Z,-0.46
2016-12-05T01:43:03.120Z,-0.46
2016-12-05T01:43:29.616Z,-0.48
2016-12-05T01:44:00.879Z,-0.54
2016-12-05T01:44:27.394Z,-0.49
2016-12-05T01:44:49.156Z,-0.52
2016-12-05T01:45:10.882Z,-0.51
2016-12-05T01:45:59.109Z,-0.57
2016-12-05T01:46:21.824Z,-0.62
2016-12-05T01:46:43.559Z,-0.64
2016-12-05T01:47:11.039Z,-0.67
2016-12-05T01:48:08.837Z,-0.62
2016-12-05T01:48:57.065Z,-0.66
2016-12-05T01:49:18.812Z,-0.66
2016-12-05T01:49:40.537Z,-0.69
2016-12-05T01:50:08.025Z,-0.74
2016-12-05T01:50:29.762Z,-0.76
2016-12-05T01:50:51.499Z,-0.76
2016-12-05T01:51:17.038Z,-0.70
2016-12-05T01:52:05.268Z,-0.64
2016-12-05T01:52:26.990Z,-0.65
2016-12-05T01:53:27.738Z,-0.66
2016-12-05T01:53:49.463Z,-0.67
2016-12-05T01:54:11.187Z,-0.70
2016-12-05T01:54:32.947Z,-0.72
2016-12-05T01:54:54.689Z,-0.67
2016-12-05T01:55:16.442Z,-0.66
2016-12-05T01:55:38.146Z,-0.69
2016-12-05T01:56:03.839Z,-0.73
2016-12-05T01:56:25.585Z,-0.69
2016-12-05T01:56:47.334Z,-0.59
2016-12-05T01:57:13.839Z,-0.55
2016-12-05T01:57:35.581Z,-0.61
2016-12-05T01:57:57.315Z,-0.64
2016-12-05T01:58:23.824Z,-0.63
2016-12-05T01:58:48.207Z,-0.63
2016-12-05T01:59:12.541Z,-0.56
2016-12-05T01:59:36.818Z,-0.52
2016-12-05T01:59:58.628Z,-0.56
2016-12-05T02:00:20.406Z,-0.64
2016-12-05T02:00:47.359Z,-0.73
2016-12-05T02:01:11.094Z,-0.79
2016-12-05T02:01:37.585Z,-0.82
2016-12-05T02:01:59.310Z,-0.78
2016-12-05T02:02:25.817Z,-0.78
2016-12-05T02:02:55.269Z,-0.79
2016-12-05T02:03:22.766Z,-0.73
2016-12-05T02:03:49.270Z,-0.69
2016-12-05T02:04:11.033Z,-0.75
2016-12-05T02:04:37.548Z,-0.81
2016-12-05T02:05:00.256Z,-0.87
2016-12-05T02:05:24.644Z,-0.82
2016-12-05T02:06:00.677Z,-0.89
2016-12-05T02:06:37.205Z,-1.00
2016-12-05T02:07:07.754Z,-1.04
2016-12-05T02:07:29.535Z,-1.06
2016-12-05T02:07:59.068Z,-1.08
2016-12-05T02:08:21.800Z,-1.12
2016-12-05T02:09:19.446Z,-1.19
2016-12-05T02:09:45.942Z,-1.21
2016-12-05T02:10:07.675Z,-1.20
2016-12-05T02:10:32.157Z,-1.16
2016-12-05T02:10:53.912Z,-1.10
2016-12-05T02:11:25.874Z,-1.09
2016-12-05T02:11:56.208Z,-1.10
2016-12-05T02:12:20.541Z,-1.11
2016-12-05T02:12:47.040Z,-1.17
2016-12-05T02:14:21.477Z,-0.93
2016-12-05T02:14:43.261Z,-0.92
2016-12-05T02:15:06.225Z,-0.91
2016-12-05T02:15:30.523Z,-0.93
2016-12-05T02:15:57.036Z,-0.95
2016-12-05T02:16:19.800Z,-0.95
2016-12-05T02:16:41.540Z,-1.00
2016-12-05T02:17:08.053Z,-0.93
2016-12-05T02:17:29.780Z,-0.95
2016-12-05T02:17:51.509Z,-0.98
2016-12-05T02:19:04.709Z,-0.98
2016-12-05T02:20:58.938Z,-0.96
2016-12-05T02:21:31.199Z,-0.95
2016-12-05T02:22:26.189Z,-0.95
2016-12-05T02:22:50.420Z,-0.96
2016-12-05T02:23:53.949Z,-1.10
2016-12-05T02:24:20.994Z,-1.03
2016-12-05T02:25:10.258Z,-0.93
2016-12-05T02:25:39.588Z,-0.89
2016-12-05T02:26:03.831Z,-0.90
2016-12-05T02:26:30.918Z,-0.96
2016-12-05T02:26:53.763Z,-0.93
2016-12-05T02:27:15.529Z,-0.86
2016-12-05T02:27:42.039Z,-0.79
2016-12-05T02:28:06.586Z,-0.81
2016-12-05T02:28:33.108Z,-0.93
2016-12-05T02:29:02.343Z,-0.98
2016-12-05T02:29:27.647Z,-0.87
2016-12-05T02:29:50.402Z,-0.80
2016-12-05T02:30:16.894Z,-0.89
2016-12-05T02:30:41.163Z,-1.02
2016-12-05T02:31:08.465Z,-1.14
2016-12-05T02:31:33.836Z,-1.23
2016-12-05T02:31:58.180Z,-1.27
2016-12-05T02:32:27.528Z,-1.28
2016-12-05T02:32:49.262Z,-1.25
2016-12-05T02:33:15.764Z,-1.26
2016-12-05T02:33:40.014Z,-1.26
2016-12-05T02:34:28.332Z,-1.33
2016-12-05T02:34:50.064Z,-1.36
2016-12-05T02:35:16.863Z,-1.39
2016-12-05T02:35:41.218Z,-1.44
2016-12-05T02:36:07.730Z,-1.47
2016-12-05T02:36:36.946Z,-1.44
2016-12-05T02:36:58.721Z,-1.29
2016-12-05T02:37:51.707Z,-0.99
2016-12-05T02:38:39.938Z,-1.06
2016-12-05T02:39:34.027Z,-1.11
2016-12-05T02:39:55.754Z,-1.21
2016-12-05T02:40:17.475Z,-1.27
2016-12-05T02:41:16.317Z,-1.37
2016-12-05T02:41:38.077Z,-1.37
2016-12-05T02:42:05.567Z,-1.32
2016-12-05T02:42:27.340Z,-1.35
2016-12-05T02:42:50.071Z,-1.40
2016-12-05T02:43:11.871Z,-1.39
2016-12-05T02:43:36.382Z,-1.26
2016-12-05T02:44:02.693Z,-1.12
2016-12-05T02:44:57.691Z,-1.19
2016-12-05T02:45:33.728Z,-1.26
2016-12-05T02:46:27.802Z,-1.27
2016-12-05T02:47:15.870Z,-1.08
2016-12-05T02:47:44.404Z,-1.11
2016-12-05T02:48:13.474Z,-1.28
2016-12-05T02:49:16.020Z,-1.43
2016-12-05T02:50:45.354Z,-1.15
2016-12-05T02:51:16.649Z,-1.22
2016-12-05T02:51:39.372Z,-1.38
2016-12-05T02:52:02.141Z,-1.39
2016-12-05T02:52:23.896Z,-1.35
2016-12-05T02:52:53.610Z,-1.36
2016-12-05T02:53:47.438Z,-1.35
2016-12-05T02:54:12.164Z,-1.33
2016-12-05T02:54:35.899Z,-1.33
2016-12-05T02:55:02.397Z,-1.39
2016-12-05T02:55:33.743Z,-1.45
2016-12-05T02:56:00.242Z,-1.46
2016-12-05T02:56:26.602Z,-1.50
2016-12-05T02:56:48.323Z,-1.45
2016-12-05T02:57:11.362Z,-1.30
2016-12-05T02:58:37.966Z,-1.36
2016-12-05T02:59:04.454Z,-1.27
2016-12-05T02:59:52.748Z,-1.08
2016-12-05T03:00:20.238Z,-1.03
2016-12-05T03:00:41.988Z,-1.18
2016-12-05T03:01:13.295Z,-1.38
2016-12-05T03:01:38.745Z,-1.35
2016-12-05T03:02:00.475Z,-1.39
2016-12-05T03:02:29.938Z,-1.42
2016-12-05T03:03:31.574Z,-1.26
2016-12-05T03:03:53.340Z,-1.22
2016-12-05T03:04:19.838Z,-1.11
2016-12-05T03:04:44.972Z,-1.17
2016-12-05T03:05:16.254Z,-1.31
2016-12-05T03:05:38.020Z,-1.35
2016-12-05T03:05:59.764Z,-1.40
2016-12-05T03:06:53.572Z,-1.55
2016-12-05T03:07:15.287Z,-1.57
2016-12-05T03:07:41.794Z,-1.59
2016-12-05T03:08:08.292Z,-1.60
2016-12-05T03:08:33.911Z,-1.58
2016-12-05T03:08:55.718Z,-1.58
2016-12-05T03:09:44.843Z,-1.62
2016-12-05T03:10:15.725Z,-1.72
2016-12-05T03:10:40.474Z,-1.79
2016-12-05T03:13:11.917Z,-1.76
2016-12-05T03:14:31.639Z,-1.82
2016-12-05T03:14:59.338Z,-1.82
2016-12-05T03:15:31.612Z,-1.93
2016-12-05T03:16:29.372Z,-2.15
2016-12-05T03:16:52.120Z,-2.17
2016-12-05T03:17:21.155Z,-2.13
2016-12-05T03:17:52.414Z,-2.06
2016-12-05T03:18:52.878Z,-1.81
2016-12-05T03:19:14.617Z,-1.64
2016-12-05T03:19:43.827Z,-1.60
2016-12-05T03:20:10.309Z,-1.55
2016-12-05T03:20:33.038Z,-1.51
2016-12-05T03:20:59.536Z,-1.51
2016-12-05T03:21:26.029Z,-1.45
2016-12-05T03:21:48.783Z,-1.45
2016-12-05T03:22:15.287Z,-1.54
2016-12-05T03:22:37.996Z,-1.67
2016-12-05T03:23:04.519Z,-1.64
2016-12-05T03:23:26.449Z,-1.60
2016-12-05T03:23:48.214Z,-1.48
2016-12-05T03:24:11.025Z,-1.49
2016-12-05T03:25:37.086Z,-1.45
2016-12-05T03:26:32.818Z,-1.54
2016-12-05T03:26:59.337Z,-1.59
2016-12-05T03:27:26.804Z,-1.61
2016-12-05T03:27:48.532Z,-1.63
2016-12-05T03:28:16.026Z,-1.55
2016-12-05T03:28:37.757Z,-1.48
2016-12-05T03:29:03.295Z,-1.38
2016-12-05T03:29:28.596Z,-1.39
2016-12-05T03:29:59.871Z,-1.58
2016-12-05T03:30:48.197Z,-1.67
2016-12-05T03:31:10.939Z,-1.70
2016-12-05T03:31:33.682Z,-1.76
2016-12-05T03:31:56.436Z,-1.86
2016-12-05T03:32:54.140Z,-1.98
2016-12-05T03:33:21.612Z,-1.94
2016-12-05T03:33:48.110Z,-1.82
2016-12-05T03:34:19.389Z,-1.72
2016-12-05T03:34:41.141Z,-1.81
2016-12-05T03:35:04.918Z,-1.88
2016-12-05T03:36:35.872Z,-1.88
2016-12-05T03:36:57.606Z,-1.81
2016-12-05T03:37:22.043Z,-1.76
2016-12-05T03:37:46.314Z,-1.79
2016-12-05T03:38:12.816Z,-1.86
2016-12-05T03:39:04.016Z,-2.01
2016-12-05T03:39:30.545Z,-1.86
2016-12-05T03:39:52.285Z,-1.74
2016-12-05T03:40:16.930Z,-1.74
2016-12-05T03:40:43.442Z,-1.81
2016-12-05T03:41:06.201Z,-1.83
2016-12-05T03:41:28.925Z,-1.85
2016-12-05T03:41:50.660Z,-1.90
2016-12-05T03:42:12.397Z,-1.99
2016-12-05T03:42:41.511Z,-2.02
2016-12-05T03:43:03.237Z,-2.02
2016-12-05T03:43:24.965Z,-1.86
2016-12-05T03:43:46.691Z,-1.77
2016-12-05T03:44:13.216Z,-1.74
2016-12-05T03:44:35.962Z,-1.76
2016-12-05T03:44:57.718Z,-1.80
2016-12-05T03:45:22.299Z,-1.84
2016-12-05T03:45:44.101Z,-1.80
2016-12-05T03:46:08.506Z,-1.76
2016-12-05T03:46:34.781Z,-1.78
2016-12-05T03:47:01.300Z,-1.76
2016-12-05T03:47:23.250Z,-1.68
2016-12-05T03:47:49.762Z,-1.55
2016-12-05T03:48:11.548Z,-1.46
2016-12-05T03:48:39.047Z,-1.44
2016-12-05T03:49:03.368Z,-1.56
2016-12-05T03:49:32.789Z,-1.76
2016-12-05T03:50:28.673Z,-1.81
2016-12-05T03:50:50.422Z,-1.73
2016-12-05T03:51:12.162Z,-1.63
2016-12-05T03:51:34.960Z,-1.59
2016-12-05T03:51:59.311Z,-1.55
2016-12-05T03:52:21.084Z,-1.58
2016-12-05T03:52:47.563Z,-1.60
2016-12-05T03:53:16.879Z,-1.55
2016-12-05T03:53:39.629Z,-1.66
2016-12-05T03:54:01.352Z,-1.79
2016-12-05T03:54:50.615Z,-1.64
2016-12-05T03:55:20.749Z,-1.64
2016-12-05T03:55:42.477Z,-1.78
2016-12-05T03:56:04.273Z,-1.89
2016-12-05T03:56:25.979Z,-1.99
2016-12-05T03:56:47.733Z,-2.02
2016-12-05T03:57:17.767Z,-2.03
2016-12-05T03:57:52.667Z,-2.01
2016-12-05T03:58:20.046Z,-2.10
2016-12-05T03:58:41.766Z,-2.20
2016-12-05T03:59:08.292Z,-2.23
2016-12-05T04:00:06.895Z,-2.11
2016-12-05T04:00:59.912Z,-2.10
2016-12-05T04:01:22.830Z,-2.18
2016-12-05T04:01:47.371Z,-2.27
2016-12-05T04:03:13.634Z,-2.11
2016-12-05T04:03:35.445Z,-2.06
2016-12-05T04:04:01.936Z,-2.10
2016-12-05T04:04:28.678Z,-2.18
2016-12-05T04:04:50.452Z,-2.31
2016-12-05T04:05:20.895Z,-2.31
2016-12-05T04:05:42.810Z,-2.26
2016-12-05T04:06:09.320Z,-2.16
2016-12-05T04:06:33.763Z,-2.18
2016-12-05T04:07:36.281Z,-2.13
2016-12-05T04:07:58.018Z,-2.14
2016-12-05T04:08:50.204Z,-2.17
2016-12-05T04:09:12.037Z,-2.14
2016-12-05T04:09:33.658Z,-2.07
2016-12-05T04:09:55.398Z,-1.98
2016-12-05T04:10:19.834Z,-2.01
2016-12-05T04:10:41.665Z,-2.08
2016-12-05T04:11:08.177Z,-2.05
2016-12-05T04:11:29.914Z,-1.97
2016-12-05T04:11:51.648Z,-1.89
2016-12-05T04:12:14.374Z,-1.89
2016-12-05T04:13:08.317Z,-1.97
2016-12-05T04:14:01.378Z,-1.86
2016-12-05T04:14:23.129Z,-1.79
2016-12-05T04:14:44.867Z,-1.74
2016-12-05T04:15:09.470Z,-1.80
2016-12-05T04:15:31.221Z,-1.91
2016-12-05T04:16:29.038Z,-1.85
2016-12-05T04:16:56.532Z,-1.72
2016-12-05T04:17:20.296Z,-1.65
2016-12-05T04:17:56.324Z,-1.72
2016-12-05T04:18:54.815Z,-2.13
2016-12-05T04:19:16.575Z,-2.19
2016-12-05T04:19:38.321Z,-2.25
2016-12-05T04:20:00.143Z,-2.30
2016-12-05T04:20:21.908Z,-2.33
2016-12-05T04:20:46.510Z,-2.40
2016-12-05T04:21:13.012Z,-2.45
2016-12-05T04:21:39.497Z,-2.36
2016-12-05T04:22:03.295Z,-2.38
2016-12-05T04:22:29.867Z,-2.40
2016-12-05T04:22:56.183Z,-2.52
2016-12-05T04:23:22.595Z,-2.61
2016-12-05T04:23:44.346Z,-2.58
2016-12-05T04:24:06.106Z,-2.38
2016-12-05T04:24:35.307Z,-2.33
2016-12-05T04:25:01.822Z,-2.46
2016-12-05T04:25:26.284Z,-2.44
2016-12-05T04:25:49.021Z,-2.51
2016-12-05T04:26:13.481Z,-2.58
2016-12-05T04:26:39.988Z,-2.53
2016-12-05T04:27:35.010Z,-2.59
2016-12-05T04:28:23.221Z,-2.73
2016-12-05T04:28:49.730Z,-2.73
2016-12-05T04:29:11.514Z,-2.70
2016-12-05T04:29:38.009Z,-2.67
2016-12-05T04:30:38.420Z,-2.68
2016-12-05T04:32:47.654Z,-2.18
2016-12-05T04:33:14.798Z,-2.17
2016-12-05T04:33:46.662Z,-2.33
2016-12-05T04:34:08.380Z,-2.35
2016-12-05T04:35:03.618Z,-2.20
2016-12-05T04:35:25.359Z,-2.12
2016-12-05T04:36:59.142Z,-2.17
2016-12-05T04:37:24.524Z,-2.18
2016-12-05T04:38:15.643Z,-1.94
2016-12-05T04:38:38.373Z,-1.86
2016-12-05T04:39:00.137Z,-1.78
2016-12-05T04:39:54.114Z,-1.85
2016-12-05T04:40:16.987Z,-2.00
2016-12-05T04:40:42.674Z,-2.11
2016-12-05T04:41:05.411Z,-2.10
2016-12-05T04:41:31.748Z,-2.05
2016-12-05T04:41:58.264Z,-2.05
2016-12-05T04:43:21.341Z,-2.23
2016-12-05T04:44:45.605Z,-2.19
2016-12-05T04:45:08.331Z,-2.18
2016-12-05T04:45:30.052Z,-2.24
2016-12-05T04:45:56.546Z,-2.28
2016-12-05T04:46:19.280Z,-2.15
2016-12-05T04:47:12.271Z,-2.14
2016-12-05T04:47:35.052Z,-2.11
2016-12-05T04:48:46.623Z,-2.00
2016-12-05T04:49:08.347Z,-2.08
2016-12-05T04:49:31.157Z,-2.14
2016-12-05T04:50:53.208Z,-2.33
2016-12-05T04:51:16.329Z,-2.35
2016-12-05T04:51:47.588Z,-2.27
2016-12-05T04:52:10.381Z,-2.19
2016-12-05T04:52:36.127Z,-2.19
2016-12-05T04:52:57.836Z,-2.19
2016-12-05T04:53:23.486Z,-2.26
2016-12-05T04:54:21.664Z,-2.18
2016-12-05T04:54:43.412Z,-2.21
2016-12-05T04:55:05.171Z,-2.25
2016-12-05T04:55:26.900Z,-2.33
2016-12-05T04:55:58.569Z,-2.42
2016-12-05T04:57:26.203Z,-2.48
2016-12-05T04:57:47.962Z,-2.45
2016-12-05T05:01:42.869Z,-2.20
2016-12-05T05:02:08.376Z,-2.08
2016-12-05T05:03:10.795Z,-1.92
2016-12-05T05:03:32.514Z,-1.91
2016-12-05T05:03:59.010Z,-1.96
2016-12-05T05:04:23.714Z,-1.94
2016-12-05T05:04:50.211Z,-1.95
2016-12-05T05:05:16.562Z,-2.02
2016-12-05T05:05:39.508Z,-1.95
2016-12-05T05:06:31.417Z,-1.89
2016-12-05T05:06:55.730Z,-1.85
2016-12-05T05:07:19.450Z,-1.80
2016-12-05T05:08:08.686Z,-1.93
2016-12-05T05:08:33.070Z,-2.05
2016-12-05T05:08:55.811Z,-2.03
2016-12-05T05:09:20.281Z,-2.09
2016-12-05T05:09:54.376Z,-2.06
2016-12-05T05:10:59.427Z,-2.16
2016-12-05T05:11:25.952Z,-2.15
2016-12-05T05:11:47.675Z,-2.14
2016-12-05T05:12:17.025Z,-2.18
2016-12-05T05:13:55.504Z,-2.34
2016-12-05T05:15:06.488Z,-2.19
2016-12-05T05:16:22.179Z,-2.40
2016-12-05T05:16:43.914Z,-2.29
2016-12-05T05:17:32.933Z,-2.11
2016-12-05T05:17:55.647Z,-2.24
2016-12-05T05:18:17.397Z,-2.39
2016-12-05T05:18:43.880Z,-2.49
2016-12-05T05:19:37.865Z,-2.45
2016-12-05T05:19:59.632Z,-2.36
2016-12-05T05:20:47.866Z,-2.41
2016-12-05T05:21:09.585Z,-2.43
2016-12-05T05:21:31.332Z,-2.41
2016-12-05T05:22:22.152Z,-2.38
2016-12-05T05:22:43.879Z,-2.34
2016-12-05T05:23:05.606Z,-2.32
2016-12-05T05:23:29.322Z,-2.33
2016-12-05T05:23:52.036Z,-2.37
2016-12-05T05:24:14.759Z,-2.39
2016-12-05T05:25:12.521Z,-2.21
2016-12-05T05:25:48.383Z,-2.00
2016-12-05T05:26:10.139Z,-1.92
2016-12-05T05:26:31.882Z,-1.94
2016-12-05T05:26:56.529Z,-1.96
2016-12-05T05:27:23.091Z,-1.94
2016-12-05T05:28:42.604Z,-2.11
2016-12-05T05:29:04.321Z,-2.08
2016-12-05T05:29:30.823Z,-2.06
2016-12-05T05:29:52.558Z,-2.12
2016-12-05T05:30:14.274Z,-2.19
2016-12-05T05:30:35.984Z,-2.23
2016-12-05T05:30:57.706Z,-2.25
2016-12-05T05:31:19.445Z,-2.29
2016-12-05T05:31:45.943Z,-2.35
2016-12-05T05:32:07.663Z,-2.36
2016-12-05T05:32:29.372Z,-2.38
2016-12-05T05:32:55.853Z,-2.22
2016-12-05T05:33:22.341Z,-2.21
2016-12-05T05:33:44.060Z,-2.19
2016-12-05T05:34:05.784Z,-2.25
2016-12-05T05:34:27.507Z,-2.30
2016-12-05T05:34:49.228Z,-2.34
2016-12-05T05:35:10.945Z,-2.29
2016-12-05T05:35:34.870Z,-2.29
2016-12-05T05:35:56.591Z,-2.19
2016-12-05T05:36:18.300Z,-2.10
2016-12-05T05:36:40.010Z,-2.05
2016-12-05T05:37:01.723Z,-2.00
2016-12-05T05:37:23.430Z,-2.02
2016-12-05T05:37:45.143Z,-2.08
2016-12-05T05:38:06.895Z,-2.14
2016-12-05T05:38:28.623Z,-2.22
2016-12-05T05:38:55.105Z,-2.29
2016-12-05T05:39:17.348Z,-2.29
2016-12-05T05:39:39.064Z,-2.27
2016-12-05T05:40:00.787Z,-2.29
2016-12-05T05:40:22.502Z,-2.37
2016-12-05T05:40:44.238Z,-2.45
2016-12-05T05:41:05.961Z,-2.52
2016-12-05T05:41:27.707Z,-2.51
2016-12-05T05:41:49.419Z,-2.52
2016-12-05T05:42:11.138Z,-2.56
2016-12-05T05:42:32.850Z,-2.57
2016-12-05T05:42:54.567Z,-2.59
2016-12-05T05:43:16.300Z,-2.56
2016-12-05T05:43:38.001Z,-2.57
2016-12-05T05:44:00.722Z,-2.56
2016-12-05T05:44:22.437Z,-2.52
2016-12-05T05:44:44.152Z,-2.46
2016-12-05T05:45:05.868Z,-2.42
2016-12-05T05:45:27.585Z,-2.33
2016-12-05T05:45:49.292Z,-2.22
2016-12-05T05:46:11.021Z,-2.14
2016-12-05T05:46:32.744Z,-2.07
2016-12-05T05:46:55.447Z,-2.12
2016-12-05T05:47:17.168Z,-2.22
2016-12-05T05:47:38.896Z,-2.26
2016-12-05T05:48:00.867Z,-2.30
2016-12-05T05:48:22.606Z,-2.33
2016-12-05T05:48:44.314Z,-2.35
2016-12-05T05:49:06.022Z,-2.35
2016-12-05T05:49:27.741Z,-2.43
2016-12-05T05:49:49.461Z,-2.48
2016-12-05T05:50:11.183Z,-2.43
2016-12-05T05:50:32.919Z,-2.29
2016-12-05T05:50:54.632Z,-2.25
2016-12-05T05:51:16.348Z,-2.19
2016-12-05T05:51:38.065Z,-2.20
2016-12-05T05:51:59.773Z,-2.23
2016-12-05T05:52:21.483Z,-2.24
2016-12-05T05:52:43.271Z,-2.17
2016-12-05T05:53:04.988Z,-2.09
2016-12-05T05:53:26.702Z,-2.06
2016-12-05T05:53:48.422Z,-2.10
2016-12-05T05:54:11.134Z,-2.21
2016-12-05T05:54:32.846Z,-2.29
2016-12-05T05:54:54.562Z,-2.23
2016-12-05T05:55:25.820Z,-2.21
2016-12-05T05:55:47.538Z,-2.20
2016-12-05T05:56:09.270Z,-2.09
2016-12-05T05:56:30.999Z,-2.06
2016-12-05T05:56:52.730Z,-2.00
2016-12-05T05:57:14.444Z,-2.03
2016-12-05T05:57:36.174Z,-2.12
2016-12-05T05:57:57.900Z,-2.21
2016-12-05T05:58:19.609Z,-2.28
2016-12-05T05:58:41.323Z,-2.29
2016-12-05T05:59:07.805Z,-2.25
2016-12-05T05:59:29.524Z,-2.28
2016-12-05T05:59:51.239Z,-2.28
2016-12-05T06:00:12.949Z,-2.35
2016-12-05T06:00:34.672Z,-2.37
2016-12-05T06:00:56.379Z,-2.42
2016-12-05T06:01:18.102Z,-2.43
2016-12-05T06:01:39.825Z,-2.37
2016-12-05T06:02:01.547Z,-2.44
2016-12-05T06:02:23.262Z,-2.33
2016-12-05T06:02:44.980Z,-2.35
2016-12-05T06:03:06.691Z,-2.31
2016-12-05T06:03:28.405Z,-2.32
2016-12-05T06:03:50.124Z,-2.31
2016-12-05T06:04:11.839Z,-2.29
2016-12-05T06:04:33.550Z,-2.28
2016-12-05T06:04:55.265Z,-2.26
2016-12-05T06:05:16.975Z,-2.30
2016-12-05T06:05:38.682Z,-2.31
2016-12-05T06:06:00.402Z,-2.29
2016-12-05T06:06:22.119Z,-2.35
2016-12-05T06:06:43.840Z,-2.34
2016-12-05T06:07:05.556Z,-2.29
2016-12-05T06:07:27.274Z,-2.21
2016-12-05T06:07:48.987Z,-2.14
2016-12-05T06:08:10.703Z,-2.08
2016-12-05T06:08:32.418Z,-2.13
2016-12-05T06:08:54.143Z,-2.10
2016-12-05T06:09:15.861Z,-2.18
2016-12-05T06:09:37.578Z,-2.25
2016-12-05T06:10:00.288Z,-2.27
2016-12-05T06:10:22.015Z,-2.16
2016-12-05T06:10:43.734Z,-2.12
2016-12-05T06:11:05.477Z,-2.23
2016-12-05T06:11:27.182Z,-2.40
2016-12-05T06:11:49.907Z,-2.49
2016-12-05T06:12:11.645Z,-2.51
2016-12-05T06:12:33.362Z,-2.43
2016-12-05T06:12:55.073Z,-2.41
2016-12-05T06:13:16.781Z,-2.46
2016-12-05T06:13:38.554Z,-2.53
2016-12-05T06:14:00.291Z,-2.58
2016-12-05T06:14:22.003Z,-2.58
2016-12-05T06:14:43.728Z,-2.71
2016-12-05T06:15:05.437Z,-2.73
2016-12-05T06:15:27.158Z,-2.76
2016-12-05T06:15:53.660Z,-2.80
2016-12-05T06:16:15.411Z,-2.80
2016-12-05T06:16:37.122Z,-2.84
2016-12-05T06:16:58.836Z,-2.84
2016-12-05T06:17:20.546Z,-2.82
2016-12-05T06:17:42.264Z,-2.84
2016-12-05T06:18:03.983Z,-2.85
2016-12-05T06:18:25.700Z,-2.95
2016-12-05T06:18:47.420Z,-2.98
2016-12-05T06:19:09.135Z,-3.02
2016-12-05T06:19:30.867Z,-3.03
2016-12-05T06:19:52.592Z,-3.04
2016-12-05T06:20:14.299Z,-3.03
2016-12-05T06:20:36.009Z,-2.94
2016-12-05T06:20:57.753Z,-2.95
2016-12-05T06:21:19.467Z,-2.96
2016-12-05T06:21:41.177Z,-2.95
2016-12-05T06:22:02.896Z,-2.84
2016-12-05T06:22:24.608Z,-2.87
2016-12-05T06:22:46.324Z,-2.89
2016-12-05T06:23:08.039Z,-2.86
2016-12-05T06:23:29.752Z,-2.79
2016-12-05T06:23:51.468Z,-2.59
2016-12-05T06:24:13.187Z,-2.53
2016-12-05T06:24:34.892Z,-2.55
2016-12-05T06:24:56.605Z,-2.64
2016-12-05T06:25:18.320Z,-2.64
2016-12-05T06:25:40.030Z,-2.63
2016-12-05T06:26:01.745Z,-2.55
2016-12-05T06:26:23.448Z,-2.58
2016-12-05T06:26:45.162Z,-2.66
2016-12-05T06:27:06.895Z,-2.65
2016-12-05T06:27:28.613Z,-2.67
2016-12-05T06:27:50.324Z,-2.70
2016-12-05T06:28:12.061Z,-2.71
2016-12-05T06:28:33.768Z,-2.71
2016-12-05T06:28:55.477Z,-2.70
2016-12-05T06:29:17.214Z,-2.63
2016-12-05T06:29:38.947Z,-2.60
2016-12-05T06:30:00.659Z,-2.60
2016-12-05T06:30:22.381Z,-2.60
2016-12-05T06:30:44.091Z,-2.52
2016-12-05T06:31:05.800Z,-2.37
2016-12-05T06:31:27.524Z,-2.48
2016-12-05T06:31:49.233Z,-2.64
2016-12-05T06:32:10.939Z,-2.73
2016-12-05T06:32:32.657Z,-2.78
2016-12-05T06:32:54.458Z,-2.78
2016-12-05T06:33:16.182Z,-2.81
2016-12-05T06:33:37.900Z,-2.82
2016-12-05T06:33:59.614Z,-2.81
2016-12-05T06:34:21.325Z,-2.82
2016-12-05T06:34:43.032Z,-2.82
2016-12-05T06:35:04.745Z,-2.81
2016-12-05T06:35:26.467Z,-2.84
2016-12-05T06:35:48.170Z,-2.93